Time;durP1;ratioP1;P1;durP2;ratioP2;P2;SDS_P1;SDS_P2;PMS_P1;PMS_P2;Temp;Humidity;BMP_temperature;BMP_pressure;BME280_temperature;BME280_humidity;BME280_pressure;Samples;Min_cycle;Max_cycle;Signal;HPM_P1;HPM_P2
2022/10/30 00:00:01;;;;;;;4.68;1.33;;;;;;;13.49;96.97;100156.22;5040546;28;20033;-68
2022/10/30 00:02:26;;;;;;;9.70;1.83;;;;;;;13.48;97.46;100149.09;5006427;28;20052;-70
2022/10/30 00:04:51;;;;;;;9.10;1.70;;;;;;;13.46;97.46;100148.59;5058459;28;20029;-71
2022/10/30 00:07:17;;;;;;;17.70;2.28;;;;;;;13.41;97.23;100144.78;5038409;28;20036;-70
2022/10/30 00:09:42;;;;;;;17.90;2.30;;;;;;;13.38;97.78;100139.88;5040569;28;20020;-70
2022/10/30 00:12:08;;;;;;;13.57;1.98;;;;;;;13.34;97.87;100138.81;5038795;28;20029;-70
2022/10/30 00:14:33;;;;;;;10.90;1.63;;;;;;;13.33;97.99;100142.66;5056714;28;20104;-72
2022/10/30 00:16:58;;;;;;;12.05;1.40;;;;;;;13.32;97.64;100145.69;5059558;28;20052;-72
2022/10/30 00:19:24;;;;;;;8.02;1.50;;;;;;;13.30;97.72;100137.72;5059652;28;20033;-70
2022/10/30 00:21:49;;;;;;;11.18;2.33;;;;;;;13.27;98.01;100138.31;5035470;28;20532;-70
2022/10/30 00:24:15;;;;;;;11.05;1.45;;;;;;;13.25;98.12;100146.03;5025727;28;20021;-70
2022/10/30 00:26:40;;;;;;;8.40;1.35;;;;;;;13.22;97.95;100139.19;5042013;28;20045;-69
2022/10/30 00:29:06;;;;;;;12.18;2.53;;;;;;;13.19;98.47;100130.72;5058488;28;20040;-71
2022/10/30 00:31:31;;;;;;;13.60;1.85;;;;;;;13.15;98.27;100132.41;5060010;28;20037;-71
2022/10/30 00:33:57;;;;;;;15.18;2.72;;;;;;;13.09;98.86;100132.44;5044039;28;20017;-70
2022/10/30 00:36:22;;;;;;;15.43;2.00;;;;;;;12.98;99.06;100119.94;5057308;28;20382;-70
2022/10/30 00:38:48;;;;;;;13.00;1.95;;;;;;;13.02;99.11;100126.47;5029745;28;20032;-71
2022/10/30 00:41:20;;;;;;;17.75;2.47;;;;;;;13.02;99.58;100120.19;5045517;28;20040;-69
2022/10/30 00:43:46;;;;;;;9.55;1.60;;;;;;;12.97;99.01;100118.31;5058466;28;20021;-71
2022/10/30 00:46:38;;;;;;;9.23;1.67;;;;;;;12.88;99.57;100118.13;5057880;28;20041;-70
2022/10/30 00:49:14;;;;;;;10.63;1.90;;;;;;;12.86;99.95;100116.75;5058583;28;20028;-71
2022/10/30 00:51:45;;;;;;;15.02;2.28;;;;;;;12.86;99.93;100111.28;5039673;28;20059;-71
2022/10/30 00:54:16;;;;;;;15.88;2.22;;;;;;;12.86;100.00;100112.09;5036871;28;20483;-69
2022/10/30 00:56:43;;;;;;;12.18;1.85;;;;;;;12.85;100.00;100115.13;5036869;28;20025;-69
2022/10/30 00:59:15;;;;;;;10.38;1.67;;;;;;;12.80;100.00;100106.94;5055129;28;20060;-70
2022/10/30 01:01:43;;;;;;;13.90;1.77;;;;;;;12.74;100.00;100093.25;5042931;28;20059;-70
2022/10/30 01:04:10;;;;;;;18.08;2.33;;;;;;;12.76;100.00;100103.94;5038620;28;20035;-70
2022/10/30 01:06:40;;;;;;;12.20;1.70;;;;;;;12.76;100.00;100101.19;5037853;28;20017;-70
2022/10/30 01:09:08;;;;;;;12.10;1.63;;;;;;;12.72;100.00;100100.97;5055857;28;20044;-70
2022/10/30 01:11:34;;;;;;;16.25;2.05;;;;;;;12.71;100.00;100101.25;5047261;28;20013;-71
2022/10/30 01:14:03;;;;;;;11.95;1.95;;;;;;;12.68;100.00;100086.19;5057585;28;20031;-71
2022/10/30 01:17:00;;;;;;;21.88;2.33;;;;;;;12.67;100.00;100103.75;5047123;28;20835;-71
2022/10/30 01:19:37;;;;;;;14.77;2.20;;;;;;;12.65;100.00;100097.75;5061589;28;20054;-71
2022/10/30 01:22:30;;;;;;;12.93;2.30;;;;;;;12.65;100.00;100107.91;5041916;28;20028;-70
2022/10/30 01:25:10;;;;;;;16.63;2.03;;;;;;;12.64;100.00;100109.81;5059905;28;20096;-72
2022/10/30 01:27:47;;;;;;;8.88;1.40;;;;;;;12.63;100.00;100090.91;5061382;28;20823;-71
2022/10/30 01:30:41;;;;;;;12.38;1.88;;;;;;;12.62;100.00;100094.78;5041539;28;20024;-70
2022/10/30 01:33:09;;;;;;;15.30;2.10;;;;;;;12.58;100.00;100083.53;5040378;28;20413;-70
2022/10/30 01:36:07;;;;;;;12.05;2.08;;;;;;;12.56;100.00;100091.25;5051532;28;20483;-70
2022/10/30 01:38:46;;;;;;;8.60;1.88;;;;;;;12.52;100.00;100080.03;5042304;28;20033;-70
2022/10/30 01:41:11;;;;;;;17.00;2.08;;;;;;;12.53;100.00;100075.38;5047225;28;20670;-72
2022/10/30 01:43:38;;;;;;;15.50;1.70;;;;;;;12.53;100.00;100086.34;5059272;28;20021;-70
2022/10/30 01:46:30;;;;;;;10.52;1.65;;;;;;;12.52;100.00;100095.66;5047988;28;20029;-68
2022/10/30 01:49:22;;;;;;;13.85;2.33;;;;;;;12.52;100.00;100090.19;5027223;28;20478;-70
2022/10/30 01:52:10;;;;;;;11.90;1.73;;;;;;;12.55;100.00;100089.59;5048926;28;20040;-70
2022/10/30 01:54:45;;;;;;;13.68;2.30;;;;;;;12.57;100.00;100081.91;5050771;28;20170;-71
2022/10/30 01:57:27;;;;;;;16.95;3.15;;;;;;;12.58;100.00;100089.84;5040207;28;20045;-72
2022/10/30 02:00:07;;;;;;;18.70;2.08;;;;;;;12.56;100.00;100083.84;5041129;28;20414;-69
2022/10/30 02:02:33;;;;;;;16.45;2.28;;;;;;;12.56;100.00;100074.78;5040475;28;20139;-71
2022/10/30 02:05:00;;;;;;;11.02;1.73;;;;;;;12.60;100.00;100086.84;5049239;28;20490;-70
2022/10/30 02:07:25;;;;;;;20.73;2.55;;;;;;;12.57;100.00;100079.16;5058003;28;20017;-71
2022/10/30 02:09:52;;;;;;;11.93;2.58;;;;;;;12.62;100.00;100084.59;5046461;28;20102;-71
2022/10/30 02:12:19;;;;;;;13.80;2.00;;;;;;;12.63;100.00;100078.03;5056880;28;20036;-70
2022/10/30 02:14:49;;;;;;;15.93;2.13;;;;;;;12.61;100.00;100077.47;5056996;28;20083;-71
2022/10/30 02:17:16;;;;;;;15.35;2.85;;;;;;;12.61;100.00;100082.16;5043956;28;20043;-71
2022/10/30 02:19:42;;;;;;;18.38;3.08;;;;;;;12.57;100.00;100077.25;5038528;28;20498;-71
2022/10/30 02:22:07;;;;;;;16.20;1.80;;;;;;;12.58;100.00;100078.88;5028084;28;20041;-71
2022/10/30 02:24:33;;;;;;;19.10;2.67;;;;;;;12.58;100.00;100073.38;5032349;28;20043;-71
2022/10/30 02:26:59;;;;;;;14.43;2.00;;;;;;;12.59;100.00;100066.00;5058738;28;20025;-72
2022/10/30 02:29:24;;;;;;;9.85;2.10;;;;;;;12.59;100.00;100068.72;5065963;28;20032;-71
2022/10/30 02:31:50;;;;;;;8.50;1.63;;;;;;;12.60;100.00;100075.84;5039970;28;20382;-70
2022/10/30 02:34:16;;;;;;;13.57;2.00;;;;;;;12.56;100.00;100066.56;5058741;28;20394;-71
2022/10/30 02:36:42;;;;;;;13.60;2.25;;;;;;;12.54;100.00;100069.59;5059111;28;20033;-69
2022/10/30 02:39:07;;;;;;;9.18;1.80;;;;;;;12.51;100.00;100077.56;5043993;28;20032;-70
2022/10/30 02:41:33;;;;;;;11.27;1.95;;;;;;;12.50;100.00;100076.75;5067949;28;20021;-69
2022/10/30 02:43:58;;;;;;;17.42;1.67;;;;;;;12.50;100.00;100081.41;5036989;28;20017;-70
2022/10/30 02:46:24;;;;;;;20.38;2.00;;;;;;;12.52;100.00;100085.50;5058267;28;20025;-70
2022/10/30 02:48:50;;;;;;;15.43;2.35;;;;;;;12.53;100.00;100081.66;5057990;28;20033;-70
2022/10/30 02:51:15;;;;;;;15.05;1.88;;;;;;;12.53;100.00;100083.59;5060680;28;20038;-72
2022/10/30 02:53:40;;;;;;;15.32;2.38;;;;;;;12.54;100.00;100082.47;5063550;28;20033;-73
2022/10/30 02:56:09;;;;;;;13.88;2.28;;;;;;;12.52;100.00;100077.28;5046462;28;20025;-72
2022/10/30 02:58:34;;;;;;;14.52;2.10;;;;;;;12.55;100.00;100073.16;5061653;28;20035;-71
2022/10/30 03:01:15;;;;;;;12.57;2.05;;;;;;;12.55;100.00;100073.16;5031735;28;20034;-70
2022/10/30 03:03:41;;;;;;;9.07;1.98;;;;;;;12.55;100.00;100082.19;5059524;28;20470;-71
2022/10/30 03:06:09;;;;;;;17.85;2.15;;;;;;;12.56;100.00;100086.56;5056255;28;20051;-71
2022/10/30 03:08:35;;;;;;;13.05;1.88;;;;;;;12.63;100.00;100086.25;5044021;28;20021;-71
2022/10/30 03:11:06;;;;;;;16.88;2.38;;;;;;;12.65;100.00;100089.50;5024175;28;20056;-71
2022/10/30 03:13:33;;;;;;;12.23;2.40;;;;;;;12.68;100.00;100077.16;5060984;28;20021;-70
2022/10/30 03:16:04;;;;;;;13.43;2.25;;;;;;;12.74;100.00;100082.28;5059194;28;20037;-70
2022/10/30 03:18:29;;;;;;;12.45;2.25;;;;;;;12.74;100.00;100082.28;5041537;28;20032;-70
2022/10/30 03:21:00;;;;;;;8.73;1.35;;;;;;;12.81;100.00;100092.13;5040648;28;20028;-72
2022/10/30 03:23:26;;;;;;;14.57;2.08;;;;;;;12.85;100.00;100094.00;5057861;28;20025;-70
2022/10/30 03:25:54;;;;;;;16.75;2.38;;;;;;;12.88;100.00;100085.19;5042416;28;20088;-71
2022/10/30 03:28:21;;;;;;;18.30;2.97;;;;;;;12.94;100.00;100083.22;5058364;28;20059;-70
2022/10/30 03:30:46;;;;;;;10.20;1.90;;;;;;;12.97;100.00;100073.59;5043512;28;20032;-73
2022/10/30 03:33:12;;;;;;;13.80;1.60;;;;;;;13.02;100.00;100068.03;5066903;28;20040;-72
2022/10/30 03:35:38;;;;;;;11.27;2.15;;;;;;;13.03;100.00;100067.75;5063435;28;20083;-72
2022/10/30 03:38:03;;;;;;;8.15;2.05;;;;;;;13.05;100.00;100061.94;5063185;28;20053;-71
2022/10/30 03:40:29;;;;;;;16.05;2.35;;;;;;;13.08;100.00;100053.97;5046993;28;20037;-75
2022/10/30 03:42:54;;;;;;;7.78;1.65;;;;;;;13.07;100.00;100038.59;5030841;28;20055;-74
2022/10/30 03:45:20;;;;;;;14.98;1.88;;;;;;;13.05;100.00;100029.84;5040002;28;20321;-73
2022/10/30 03:47:46;;;;;;;14.50;1.60;;;;;;;13.09;100.00;100044.59;5063559;28;20033;-73
2022/10/30 03:50:11;;;;;;;8.15;1.55;;;;;;;13.07;100.00;100024.88;5030990;28;20079;-73
2022/10/30 03:52:37;;;;;;;13.82;2.00;;;;;;;13.00;100.00;100007.13;5049471;28;20436;-75
2022/10/30 03:55:02;;;;;;;13.90;2.05;;;;;;;12.88;100.00;100002.06;5061721;28;20062;-74
2022/10/30 03:57:28;;;;;;;7.53;1.80;;;;;;;12.91;100.00;100021.47;5051649;28;20048;-74
2022/10/30 03:59:53;;;;;;;6.25;1.77;;;;;;;12.87;100.00;100030.59;5022232;28;20459;-72
2022/10/30 04:02:18;;;;;;;21.48;2.22;;;;;;;12.94;100.00;100042.03;5033848;28;20067;-74
2022/10/30 04:04:44;;;;;;;6.60;1.38;;;;;;;13.05;100.00;100051.81;5042483;28;20107;-76
2022/10/30 04:07:09;;;;;;;11.77;2.10;;;;;;;13.17;100.00;100056.06;5062026;28;20059;-75
2022/10/30 04:09:34;;;;;;;9.88;1.65;;;;;;;13.27;100.00;100055.94;5052193;28;20028;-76
2022/10/30 04:12:00;;;;;;;12.80;2.00;;;;;;;13.33;100.00;100054.78;5043860;28;20326;-76
2022/10/30 04:14:25;;;;;;;17.25;2.05;;;;;;;13.28;100.00;100049.34;5061025;28;21380;-75
2022/10/30 04:16:51;;;;;;;11.98;1.95;;;;;;;13.24;100.00;100048.28;5029107;28;20052;-75
2022/10/30 04:19:17;;;;;;;13.13;1.65;;;;;;;13.21;100.00;100037.88;5047090;28;20083;-77
2022/10/30 04:21:42;;;;;;;16.13;1.92;;;;;;;13.21;100.00;100040.63;5047191;28;20036;-76
2022/10/30 04:24:08;;;;;;;17.73;2.50;;;;;;;13.21;100.00;100032.41;5044150;28;20091;-75
2022/10/30 04:26:34;;;;;;;16.20;1.95;;;;;;;13.27;100.00;100034.81;5044921;28;20025;-75
2022/10/30 04:29:00;;;;;;;16.73;2.83;;;;;;;13.34;100.00;100039.94;5055918;28;20058;-75
2022/10/30 04:31:25;;;;;;;14.65;2.00;;;;;;;13.41;100.00;100045.91;5011555;28;20036;-75
2022/10/30 04:33:50;;;;;;;12.02;2.03;;;;;;;13.51;100.00;100055.94;5037391;28;20044;-76
2022/10/30 04:36:17;;;;;;;16.52;2.80;;;;;;;13.58;99.91;100066.56;5035072;28;20127;-75
2022/10/30 04:38:42;;;;;;;15.18;2.70;;;;;;;13.64;99.37;100064.56;5058816;28;20717;-71
2022/10/30 04:41:08;;;;;;;11.20;1.67;;;;;;;13.65;98.62;100069.75;5026674;28;20036;-72
2022/10/30 04:43:34;;;;;;;11.70;1.45;;;;;;;13.61;98.58;100060.50;5035682;28;20025;-72
2022/10/30 04:46:03;;;;;;;14.02;2.00;;;;;;;13.55;98.72;100050.66;5058624;28;20036;-71
2022/10/30 04:48:29;;;;;;;12.73;2.00;;;;;;;13.54;98.92;100060.03;5042834;28;20036;-73
2022/10/30 04:50:57;;;;;;;13.23;2.45;;;;;;;13.52;98.88;100057.59;5025817;28;20033;-72
2022/10/30 04:53:23;;;;;;;13.80;1.95;;;;;;;13.59;98.96;100057.22;5035164;28;20106;-71
2022/10/30 04:55:52;;;;;;;21.02;2.88;;;;;;;13.64;98.11;100059.91;5051031;28;20026;-71
2022/10/30 04:58:18;;;;;;;16.05;2.15;;;;;;;13.65;98.09;100061.53;5042275;28;20033;-71
2022/10/30 05:00:43;;;;;;;17.30;2.25;;;;;;;13.68;97.79;100066.44;5041433;28;20074;-70
2022/10/30 05:03:17;;;;;;;23.35;2.58;;;;;;;13.74;98.15;100068.00;5042267;28;20385;-70
2022/10/30 05:05:43;;;;;;;11.45;2.00;;;;;;;13.74;98.02;100061.69;5040214;28;20025;-69
2022/10/30 05:08:08;;;;;;;15.73;1.80;;;;;;;13.71;97.85;100065.03;5026195;28;20031;-72
2022/10/30 05:10:37;;;;;;;12.75;1.95;;;;;;;13.68;97.88;100071.94;5026550;28;20037;-72
2022/10/30 05:13:02;;;;;;;11.57;1.63;;;;;;;13.64;98.27;100059.91;5058716;28;20020;-71
2022/10/30 05:15:28;;;;;;;17.48;2.58;;;;;;;13.63;98.63;100072.00;5034352;28;20104;-70
2022/10/30 05:17:53;;;;;;;19.30;2.50;;;;;;;13.61;98.66;100066.00;5045015;28;20497;-70
2022/10/30 05:20:22;;;;;;;16.58;2.15;;;;;;;13.58;98.86;100058.31;5057850;28;20044;-70
2022/10/30 05:22:55;;;;;;;17.45;2.17;;;;;;;13.56;98.84;100060.56;5029716;28;20385;-70
2022/10/30 05:25:20;;;;;;;16.60;2.60;;;;;;;13.56;98.94;100063.31;5051994;28;20025;-72
2022/10/30 05:27:46;;;;;;;11.30;2.30;;;;;;;13.54;99.01;100062.78;5038070;28;20036;-71
2022/10/30 05:30:12;;;;;;;20.83;2.47;;;;;;;13.56;98.99;100066.03;5040672;28;20348;-71
2022/10/30 05:32:37;;;;;;;22.45;2.92;;;;;;;13.59;99.26;100058.06;5060275;28;20064;-70
2022/10/30 05:35:06;;;;;;;23.60;2.92;;;;;;;13.67;99.06;100063.97;5023519;28;20033;-71
2022/10/30 05:37:31;;;;;;;15.32;1.83;;;;;;;13.68;99.02;100046.38;5038879;28;20088;-70
2022/10/30 05:39:57;;;;;;;14.30;2.05;;;;;;;13.66;98.75;100045.88;5007700;28;20063;-70
2022/10/30 05:42:22;;;;;;;16.67;2.20;;;;;;;13.60;99.07;100050.63;5024848;28;20033;-70
2022/10/30 05:44:48;;;;;;;17.35;2.00;;;;;;;13.57;99.29;100048.47;5067155;28;20128;-70
2022/10/30 05:47:13;;;;;;;17.13;2.03;;;;;;;13.53;99.36;100042.72;5043143;28;20471;-71
2022/10/30 05:49:38;;;;;;;13.75;1.95;;;;;;;13.53;99.41;100039.97;5059319;28;20035;-72
2022/10/30 05:52:04;;;;;;;18.48;2.58;;;;;;;13.54;99.28;100054.56;5025636;28;20029;-71
2022/10/30 05:54:29;;;;;;;18.00;2.50;;;;;;;13.55;99.14;100045.16;5034315;28;20029;-70
2022/10/30 05:56:57;;;;;;;20.55;2.45;;;;;;;13.60;98.80;100042.38;5045676;28;20467;-70
2022/10/30 05:59:22;;;;;;;16.58;2.30;;;;;;;13.58;98.66;100039.94;5059312;28;20825;-72
2022/10/30 06:01:48;;;;;;;17.65;2.40;;;;;;;13.57;98.42;100031.97;5059701;28;20043;-70
2022/10/30 06:04:13;;;;;;;15.48;2.20;;;;;;;13.59;98.32;100029.75;5062754;28;20025;-71
2022/10/30 06:06:39;;;;;;;10.95;1.92;;;;;;;13.65;98.56;100045.03;5046156;28;20037;-72
2022/10/30 06:09:04;;;;;;;12.70;1.95;;;;;;;13.67;98.54;100040.06;5050750;28;20017;-70
2022/10/30 06:11:30;;;;;;;13.38;1.52;;;;;;;13.66;97.82;100041.19;5045425;28;20079;-70
2022/10/30 06:13:55;;;;;;;32.78;3.15;;;;;;;13.66;97.34;100057.66;5061268;28;20033;-70
2022/10/30 06:16:21;;;;;;;18.50;2.25;;;;;;;13.66;96.86;100051.38;5061597;28;20076;-71
2022/10/30 06:18:46;;;;;;;17.60;2.60;;;;;;;13.67;96.73;100055.72;5029148;28;20039;-71
2022/10/30 06:21:12;;;;;;;22.17;2.78;;;;;;;13.70;96.24;100057.91;5042195;28;20028;-71
2022/10/30 06:23:37;;;;;;;13.77;2.30;;;;;;;13.72;95.60;100048.22;5050755;28;20083;-71
2022/10/30 06:26:02;;;;;;;16.83;2.25;;;;;;;13.76;95.17;100049.28;5027029;28;20032;-70
2022/10/30 06:28:28;;;;;;;15.95;1.88;;;;;;;13.77;94.99;100052.88;5044353;28;20028;-70
2022/10/30 06:30:54;;;;;;;20.25;2.85;;;;;;;13.73;95.08;100055.38;5062274;28;20518;-70
2022/10/30 06:33:19;;;;;;;19.13;2.28;;;;;;;13.72;95.25;100047.44;5053892;28;20049;-72
2022/10/30 06:35:48;;;;;;;14.38;1.85;;;;;;;13.66;95.13;100052.16;5036834;28;20029;-71
2022/10/30 06:38:14;;;;;;;14.30;2.05;;;;;;;13.70;94.91;100058.72;5054627;28;20026;-70
2022/10/30 06:40:40;;;;;;;14.20;2.42;;;;;;;13.70;94.78;100046.91;5041930;28;20024;-70
2022/10/30 06:43:06;;;;;;;7.43;1.70;;;;;;;13.69;94.91;100046.09;5040704;28;20094;-70
2022/10/30 06:45:32;;;;;;;13.80;1.88;;;;;;;13.68;94.80;100060.97;5057775;28;20040;-70
2022/10/30 06:48:01;;;;;;;12.02;1.80;;;;;;;13.68;95.01;100054.63;5051509;28;20032;-72
2022/10/30 06:50:26;;;;;;;16.58;2.22;;;;;;;13.69;94.74;100061.75;5044221;28;20025;-71
2022/10/30 06:52:54;;;;;;;15.70;2.25;;;;;;;13.68;94.75;100063.69;5045132;28;20030;-70
2022/10/30 06:55:19;;;;;;;9.27;1.65;;;;;;;13.68;94.70;100055.47;5050422;28;20036;-72
2022/10/30 06:57:45;;;;;;;13.82;2.35;;;;;;;13.67;94.54;100036.50;5060043;28;20043;-70
2022/10/30 07:00:11;;;;;;;14.15;2.05;;;;;;;13.70;94.35;100041.41;5032562;28;20029;-71
2022/10/30 07:02:37;;;;;;;15.55;2.05;;;;;;;13.70;94.27;100047.72;5058153;28;20036;-72
2022/10/30 07:05:02;;;;;;;11.35;1.67;;;;;;;13.66;94.20;100041.19;5059695;28;20021;-72
2022/10/30 07:07:28;;;;;;;9.48;1.70;;;;;;;13.67;94.06;100053.81;5042643;28;20029;-71
2022/10/30 07:09:53;;;;;;;23.65;1.95;;;;;;;13.67;94.37;100045.56;5060484;28;20019;-69
2022/10/30 07:12:19;;;;;;;12.10;2.22;;;;;;;13.63;94.53;100029.97;5028430;28;20033;-72
2022/10/30 07:14:44;;;;;;;10.23;1.48;;;;;;;13.62;94.99;100045.63;5056652;28;20036;-71
2022/10/30 07:17:10;;;;;;;19.30;2.63;;;;;;;13.67;94.93;100039.25;5044878;28;20048;-71
2022/10/30 07:19:35;;;;;;;11.32;2.03;;;;;;;13.69;95.20;100051.56;5059461;28;20025;-71
2022/10/30 07:22:01;;;;;;;15.15;1.85;;;;;;;13.77;94.78;100048.19;5043829;28;20398;-71
2022/10/30 07:24:27;;;;;;;8.82;1.98;;;;;;;13.77;94.85;100042.69;5057339;28;20025;-71
2022/10/30 07:26:54;;;;;;;21.80;2.38;;;;;;;13.78;94.89;100044.31;5036314;28;20052;-71
2022/10/30 07:29:19;;;;;;;20.08;2.50;;;;;;;13.81;95.19;100061.31;5059340;28;20039;-71
2022/10/30 07:31:46;;;;;;;16.10;2.35;;;;;;;13.76;94.96;100041.03;5043811;28;20662;-71
2022/10/30 07:34:11;;;;;;;10.05;2.28;;;;;;;13.81;94.88;100050.31;5018905;28;20025;-72
2022/10/30 07:36:36;;;;;;;10.20;2.75;;;;;;;13.80;94.91;100046.78;5043450;28;20320;-70
2022/10/30 07:39:02;;;;;;;18.08;2.25;;;;;;;13.78;94.97;100022.34;5046855;28;20557;-72
2022/10/30 07:41:27;;;;;;;12.02;2.50;;;;;;;13.78;95.03;100011.34;5061485;28;20029;-71
2022/10/30 07:43:53;;;;;;;19.58;2.13;;;;;;;13.72;94.99;100001.53;5046292;28;20035;-71
2022/10/30 07:46:18;;;;;;;17.90;2.33;;;;;;;13.82;94.75;100027.25;5029238;28;20033;-70
2022/10/30 07:48:44;;;;;;;17.02;2.67;;;;;;;13.75;94.42;100014.66;5060151;28;20057;-72
2022/10/30 07:51:09;;;;;;;13.85;2.55;;;;;;;13.77;95.23;100020.69;5049459;28;20123;-71
2022/10/30 07:53:35;;;;;;;10.65;1.73;;;;;;;13.73;95.07;100019.66;5027587;28;20032;-71
2022/10/30 07:56:00;;;;;;;15.85;2.28;;;;;;;13.81;94.75;100036.59;5047346;28;20051;-72
2022/10/30 07:58:26;;;;;;;14.10;2.67;;;;;;;13.86;93.81;100031.03;5032393;28;20032;-73
2022/10/30 08:00:51;;;;;;;16.50;2.13;;;;;;;13.92;92.73;100038.06;5042369;28;20044;-70
2022/10/30 08:03:16;;;;;;;8.23;1.30;;;;;;;13.99;92.07;100033.03;5031987;28;20035;-72
2022/10/30 08:05:42;;;;;;;12.20;1.48;;;;;;;14.13;91.21;100035.81;5060219;28;20056;-72
2022/10/30 08:08:07;;;;;;;14.02;1.85;;;;;;;14.23;90.92;100038.41;5020971;28;20080;-72
2022/10/30 08:10:34;;;;;;;14.13;1.55;;;;;;;14.27;90.39;100036.69;5045568;28;20056;-72
2022/10/30 08:13:17;;;;;;;15.73;1.70;;;;;;;14.32;90.34;100035.78;5059758;28;20031;-72
2022/10/30 08:15:43;;;;;;;10.18;1.98;;;;;;;14.30;90.12;100027.84;5031343;28;20041;-70
2022/10/30 08:18:08;;;;;;;9.25;2.20;;;;;;;14.44;89.95;100047.16;5053494;28;20041;-72
2022/10/30 08:20:34;;;;;;;18.80;3.00;;;;;;;14.53;89.68;100051.94;5060911;28;20550;-72
2022/10/30 08:22:59;;;;;;;14.55;1.77;;;;;;;14.55;89.35;100047.78;5058547;28;20736;-72
2022/10/30 08:25:29;;;;;;;11.38;2.28;;;;;;;14.59;87.71;100048.00;5052637;28;20032;-72
2022/10/30 08:28:02;;;;;;;11.50;1.48;;;;;;;14.64;86.90;100053.44;5036562;28;20387;-72
2022/10/30 08:30:33;;;;;;;19.42;1.67;;;;;;;14.68;85.62;100051.72;5053852;28;20082;-70
2022/10/30 08:33:00;;;;;;;14.68;1.77;;;;;;;14.89;85.28;100070.59;5054555;28;20025;-69
2022/10/30 08:35:26;;;;;;;13.85;1.98;;;;;;;15.03;83.70;100071.44;5053263;28;20422;-70
2022/10/30 08:37:56;;;;;;;10.68;2.03;;;;;;;15.09;83.15;100075.72;5056002;28;20051;-71
2022/10/30 08:40:22;;;;;;;10.07;1.70;;;;;;;15.09;83.40;100086.75;5053212;28;20086;-71
2022/10/30 08:42:55;;;;;;;9.70;1.58;;;;;;;15.16;83.11;100065.13;5038440;28;20067;-70
2022/10/30 08:45:22;;;;;;;10.63;1.93;;;;;;;15.24;83.70;100058.06;5041168;28;20020;-69
2022/10/30 08:47:54;;;;;;;16.27;2.88;;;;;;;15.34;83.84;100076.34;5043193;28;20025;-73
2022/10/30 08:50:20;;;;;;;16.55;2.90;;;;;;;15.33;83.11;100086.56;5038172;28;20048;-70
2022/10/30 08:52:45;;;;;;;16.13;2.47;;;;;;;15.19;83.91;100092.06;5046351;28;20045;-70
2022/10/30 08:55:11;;;;;;;12.50;1.73;;;;;;;15.13;84.94;100092.47;5045010;28;20140;-72
2022/10/30 08:57:38;;;;;;;9.40;2.08;;;;;;;15.13;85.63;100087.78;5017752;28;20025;-72
2022/10/30 09:00:05;;;;;;;19.10;2.90;;;;;;;15.14;85.05;100086.66;5060496;28;20048;-72
2022/10/30 09:02:31;;;;;;;16.25;2.15;;;;;;;15.13;85.21;100104.28;5042662;28;20410;-70
2022/10/30 09:04:56;;;;;;;20.35;3.08;;;;;;;15.15;85.13;100095.72;5022410;28;20036;-71
2022/10/30 09:07:22;;;;;;;19.02;2.85;;;;;;;15.16;85.51;100092.66;5040472;28;20025;-72
2022/10/30 09:09:47;;;;;;;22.63;2.55;;;;;;;15.15;85.68;100085.50;5038005;28;20422;-71
2022/10/30 09:12:13;;;;;;;13.07;2.55;;;;;;;15.29;85.59;100106.75;5058563;28;20021;-70
2022/10/30 09:14:38;;;;;;;12.00;2.08;;;;;;;15.30;85.46;100106.47;5058740;28;20483;-71
2022/10/30 09:17:04;;;;;;;19.38;2.53;;;;;;;15.27;85.15;100097.97;5057837;28;20049;-70
2022/10/30 09:19:29;;;;;;;19.02;2.47;;;;;;;15.28;85.22;100099.63;5033373;28;20443;-72
2022/10/30 09:21:55;;;;;;;14.63;2.33;;;;;;;15.31;84.39;100104.50;5025305;28;20673;-71
2022/10/30 09:24:20;;;;;;;13.85;1.98;;;;;;;15.23;83.62;100074.91;5039152;28;20033;-72
2022/10/30 09:26:46;;;;;;;16.98;2.72;;;;;;;15.46;83.40;100084.94;5058958;28;20056;-70
2022/10/30 09:29:11;;;;;;;24.63;3.40;;;;;;;15.48;82.51;100088.19;5054901;28;20087;-71
2022/10/30 09:31:37;;;;;;;29.40;3.63;;;;;;;15.56;82.30;100083.88;5057573;28;20016;-71
2022/10/30 09:34:05;;;;;;;19.20;2.10;;;;;;;15.56;82.04;100077.56;5034976;28;20029;-71
2022/10/30 09:36:31;;;;;;;15.98;2.88;;;;;;;15.59;81.59;100080.50;5038104;28;20039;-70
2022/10/30 09:38:58;;;;;;;8.65;1.50;;;;;;;15.74;81.57;100079.38;5056934;28;20029;-71
2022/10/30 09:41:39;;;;;;;11.68;1.67;;;;;;;15.81;80.60;100084.50;5042265;28;20036;-71
2022/10/30 09:44:19;;;;;;;22.75;2.60;;;;;;;15.83;80.93;100088.56;5041001;28;20031;-73
2022/10/30 09:46:57;;;;;;;13.75;1.65;;;;;;;15.78;79.91;100085.91;5058306;28;20128;-71
2022/10/30 09:50:02;;;;;;;20.98;2.42;;;;;;;15.79;80.14;100098.59;5040400;28;20031;-73
2022/10/30 09:52:51;;;;;;;15.02;2.33;;;;;;;15.71;80.12;100099.28;5054325;28;20128;-72
2022/10/30 09:55:59;;;;;;;19.15;2.22;;;;;;;15.64;80.19;100096.94;5059063;28;20060;-72
2022/10/30 09:58:30;;;;;;;16.13;2.88;;;;;;;15.66;80.73;100088.38;5042977;28;20045;-70
2022/10/30 10:01:19;;;;;;;22.77;2.22;;;;;;;15.79;80.00;100089.50;5057463;28;20089;-78
2022/10/30 10:03:58;;;;;;;14.65;2.42;;;;;;;15.99;79.88;100094.56;5038754;28;20367;-71
2022/10/30 10:06:25;;;;;;;15.80;2.13;;;;;;;16.01;79.27;100094.25;5060017;28;20084;-71
2022/10/30 10:08:57;;;;;;;22.52;3.15;;;;;;;15.82;78.36;100070.38;5055686;28;20029;-75
2022/10/30 10:11:31;;;;;;;15.13;2.58;;;;;;;15.90;78.75;100092.84;5061798;28;20378;-72
2022/10/30 10:14:03;;;;;;;17.67;2.50;;;;;;;15.90;79.41;100084.56;5042499;28;20032;-72
2022/10/30 10:16:35;;;;;;;13.35;2.35;;;;;;;15.84;80.02;100090.22;5043151;28;20069;-72
2022/10/30 10:19:25;;;;;;;11.68;1.70;;;;;;;15.80;77.78;100089.19;5043148;28;20382;-74
2022/10/30 10:22:05;;;;;;;8.55;1.40;;;;;;;15.77;76.68;100078.75;5043090;28;20045;-73
2022/10/30 10:24:38;;;;;;;12.73;2.00;;;;;;;15.80;76.90;100082.84;5040616;28;20032;-76
2022/10/30 10:27:22;;;;;;;7.82;1.15;;;;;;;15.82;76.51;100086.13;5054286;28;20036;-73
2022/10/30 10:30:14;;;;;;;8.48;1.38;;;;;;;15.84;76.13;100092.97;5060574;28;20021;-73
2022/10/30 10:33:31;;;;;;;9.90;1.75;;;;;;;15.82;76.64;100102.66;5042956;28;20020;-74
2022/10/30 10:36:26;;;;;;;9.35;1.23;;;;;;;15.84;76.37;100101.25;5012354;28;20029;-74
2022/10/30 10:39:04;;;;;;;12.55;2.05;;;;;;;15.92;76.49;100107.16;5027279;28;20111;-74
2022/10/30 10:41:52;;;;;;;13.48;1.83;;;;;;;15.78;77.07;100096.94;5051967;28;20056;-72
2022/10/30 10:45:05;;;;;;;10.60;1.63;;;;;;;15.78;77.58;100107.13;5043268;28;20036;-74
2022/10/30 10:47:56;;;;;;;17.08;1.65;;;;;;;15.76;78.60;100121.22;4996648;28;20045;-72
2022/10/30 10:50:45;;;;;;;15.68;2.78;;;;;;;15.83;78.83;100116.16;5050157;28;20135;-73
2022/10/30 10:53:41;;;;;;;21.52;2.00;;;;;;;15.99;78.04;100119.38;5059361;28;20024;-72
2022/10/30 10:56:08;;;;;;;10.18;1.58;;;;;;;16.37;77.46;100119.06;5059254;28;20021;-73
2022/10/30 10:58:48;;;;;;;5.78;1.80;;;;;;;16.63;76.23;100112.94;5044412;28;20122;-73
2022/10/30 11:01:19;;;;;;;14.50;1.70;;;;;;;17.04;74.48;100111.06;5040054;28;20020;-73
2022/10/30 11:03:54;;;;;;;7.07;1.20;;;;;;;17.50;72.88;100103.47;5042119;28;20031;-71
2022/10/30 11:06:26;;;;;;;13.93;1.85;;;;;;;17.77;70.95;100107.91;5058084;28;20032;-73
2022/10/30 11:09:00;;;;;;;6.70;1.52;;;;;;;18.72;68.69;100116.59;5042957;28;20045;-72
2022/10/30 11:11:25;;;;;;;;;;;;;;;20.45;63.74;100109.72;5042905;28;20036;-73
2022/10/30 11:13:51;;;;;;;12.73;2.13;;;;;;;21.13;58.19;100105.75;5041718;28;19921;-73
2022/10/30 11:16:19;;;;;;;9.10;1.40;;;;;;;21.13;58.77;100111.31;5059509;28;20124;-71
2022/10/30 11:18:51;;;;;;;8.63;1.55;;;;;;;22.45;54.55;100117.50;5054463;28;20120;-75
2022/10/30 11:21:20;;;;;;;4.75;1.40;;;;;;;22.37;53.47;100107.31;5057063;28;20032;-72
2022/10/30 11:23:47;;;;;;;9.50;1.83;;;;;;;22.33;55.65;100106.41;5040268;28;20103;-74
2022/10/30 11:26:27;;;;;;;6.93;2.00;;;;;;;22.66;53.28;100108.09;5044507;28;20009;-74